Time;durP1;ratioP1;P1;durP2;ratioP2;P2;SDS_P1;SDS_P2;PMS_P1;PMS_P2;Temp;Humidity;BMP_temperature;BMP_pressure;BME280_temperature;BME280_humidity;BME280_pressure;Samples;Min_cycle;Max_cycle;Signal;HPM_P1;HPM_P2
2023/01/02 00:00:28;;;;;;;9.25;7.30;;;;;;;11.93;100.00;100408.00;5000833;28;20195;-72
2023/01/02 00:02:55;;;;;;;9.68;6.22;;;;;;;11.98;100.00;100409.50;5000388;28;20191;-72
2023/01/02 00:05:21;;;;;;;11.35;6.60;;;;;;;12.07;100.00;100410.88;4997748;28;20696;-73
2023/01/02 00:07:48;;;;;;;14.70;6.80;;;;;;;12.04;100.00;100411.03;4999419;28;20634;-72
2023/01/02 00:10:15;;;;;;;11.18;7.05;;;;;;;12.17;100.00;100409.47;5001187;28;20237;-72
2023/01/02 00:12:42;;;;;;;9.52;7.15;;;;;;;12.27;100.00;100409.84;4999842;28;20277;-73
2023/01/02 00:15:11;;;;;;;12.38;6.25;;;;;;;12.25;100.00;100415.31;4998510;28;20258;-73
2023/01/02 00:17:37;;;;;;;10.43;6.43;;;;;;;12.21;100.00;100392.16;4995326;28;20246;-73
2023/01/02 00:20:05;;;;;;;10.50;6.70;;;;;;;12.11;100.00;100404.38;4996894;28;20198;-72
2023/01/02 00:22:32;;;;;;;11.80;6.53;;;;;;;11.92;100.00;100388.25;4996490;28;20689;-73
2023/01/02 00:24:58;;;;;;;13.40;6.43;;;;;;;11.95;100.00;100384.53;5005820;28;20267;-72
2023/01/02 00:27:25;;;;;;;12.40;7.03;;;;;;;11.82;100.00;100389.63;5000765;28;20670;-73
2023/01/02 00:29:52;;;;;;;11.48;6.93;;;;;;;11.68;100.00;100374.13;4988419;28;20282;-72
2023/01/02 00:32:20;;;;;;;11.70;6.30;;;;;;;11.76;100.00;100374.63;5005080;28;20183;-73
2023/01/02 00:34:47;;;;;;;9.35;6.55;;;;;;;11.69;100.00;100368.69;5007258;28;20219;-72
2023/01/02 00:37:13;;;;;;;11.18;6.13;;;;;;;11.71;100.00;100373.97;5002668;28;20200;-73
2023/01/02 00:39:40;;;;;;;11.13;6.97;;;;;;;11.62;100.00;100372.63;4998742;28;20282;-72
2023/01/02 00:42:06;;;;;;;8.60;5.88;;;;;;;11.64;100.00;100375.25;4997371;28;20207;-75
2023/01/02 00:44:33;;;;;;;14.57;7.47;;;;;;;11.51;100.00;100374.09;4997562;28;20278;-72
2023/01/02 00:47:01;;;;;;;10.55;6.80;;;;;;;11.42;100.00;100370.94;4998347;28;20198;-73
2023/01/02 00:49:29;;;;;;;10.00;7.03;;;;;;;11.40;100.00;100367.44;5003804;28;20195;-72
2023/01/02 00:51:56;;;;;;;12.23;6.80;;;;;;;11.43;100.00;100367.28;5001009;28;20689;-72
2023/01/02 00:54:22;;;;;;;8.52;6.70;;;;;;;11.42;100.00;100359.28;5001255;28;20665;-73
2023/01/02 00:56:49;;;;;;;12.60;7.55;;;;;;;11.48;100.00;100367.03;5000634;28;20235;-72
2023/01/02 00:59:16;;;;;;;15.68;9.35;;;;;;;11.37;100.00;100362.16;4999756;28;20203;-73
2023/01/02 01:01:42;;;;;;;15.73;8.02;;;;;;;11.32;100.00;100369.63;5001331;28;20210;-73
2023/01/02 01:04:09;;;;;;;10.20;6.47;;;;;;;11.29;100.00;100361.69;4999731;28;20203;-72
2023/01/02 01:06:37;;;;;;;11.40;6.85;;;;;;;11.28;100.00;100346.44;5045959;23;20221;-71
2023/01/02 01:09:04;;;;;;;12.50;7.20;;;;;;;11.30;100.00;100352.63;5038188;28;20208;-72
2023/01/02 01:11:31;;;;;;;13.55;6.82;;;;;;;11.34;100.00;100346.16;5040990;28;20229;-71
2023/01/02 01:13:58;;;;;;;10.85;6.45;;;;;;;11.37;100.00;100343.28;5037295;28;20583;-70
2023/01/02 01:16:25;;;;;;;8.75;6.80;;;;;;;11.43;100.00;100351.09;5036332;28;20728;-72
2023/01/02 01:18:55;;;;;;;9.80;6.20;;;;;;;11.42;100.00;100365.53;5034925;28;20194;-71
2023/01/02 01:21:21;;;;;;;9.73;6.65;;;;;;;11.33;100.00;100355.22;5034980;28;20198;-71
2023/01/02 01:23:52;;;;;;;8.13;6.20;;;;;;;11.45;100.00;100343.81;5035452;28;20220;-71
2023/01/02 01:26:19;;;;;;;9.77;6.35;;;;;;;11.56;100.00;100345.09;5035626;28;20663;-71
2023/01/02 01:28:46;;;;;;;10.30;5.45;;;;;;;11.69;100.00;100346.22;5034568;28;20220;-72
2023/01/02 01:31:15;;;;;;;10.38;6.93;;;;;;;11.68;100.00;100347.16;5034229;28;20228;-73
2023/01/02 01:33:43;;;;;;;8.00;5.68;;;;;;;11.63;100.00;100344.69;5034123;28;20196;-71
2023/01/02 01:36:11;;;;;;;10.18;6.32;;;;;;;11.48;100.00;100342.75;5034033;28;20328;-70
2023/01/02 01:38:38;;;;;;;7.82;5.55;;;;;;;11.50;100.00;100348.09;5036506;28;20319;-71
2023/01/02 01:41:06;;;;;;;8.93;5.72;;;;;;;11.45;100.00;100351.88;5039815;28;20258;-72
2023/01/02 01:43:38;;;;;;;8.75;5.97;;;;;;;11.51;100.00;100363.31;5045706;28;20209;-70
2023/01/02 01:46:07;;;;;;;10.25;5.68;;;;;;;11.46;100.00;100356.34;5049596;28;20289;-71
2023/01/02 01:48:34;;;;;;;11.30;5.50;;;;;;;11.53;100.00;100345.22;5047900;28;20735;-71
2023/01/02 01:51:00;;;;;;;8.48;6.50;;;;;;;11.54;100.00;100341.59;5042199;28;20213;-71
2023/01/02 01:53:27;;;;;;;9.52;5.32;;;;;;;11.54;100.00;100337.06;5050665;28;20198;-70
2023/01/02 01:55:59;;;;;;;10.50;6.13;;;;;;;11.57;100.00;100339.59;5040629;28;20289;-71
2023/01/02 01:58:31;;;;;;;8.60;5.15;;;;;;;11.61;100.00;100343.03;5037660;28;20261;-72
2023/01/02 02:00:58;;;;;;;10.63;5.50;;;;;;;11.61;100.00;100340.34;5040996;28;20186;-70
2023/01/02 02:03:29;;;;;;;9.35;6.22;;;;;;;11.64;100.00;100342.88;5038165;28;20181;-71
2023/01/02 02:05:57;;;;;;;9.93;5.65;;;;;;;11.68;100.00;100345.34;5032676;28;20224;-72
2023/01/02 02:08:30;;;;;;;8.13;5.72;;;;;;;11.81;100.00;100337.50;5039634;28;20202;-71
2023/01/02 02:10:59;;;;;;;9.85;5.45;;;;;;;11.80;100.00;100343.84;5037289;28;20694;-70
2023/01/02 02:13:26;;;;;;;9.32;5.63;;;;;;;11.86;100.00;100345.34;5034684;28;20202;-70
2023/01/02 02:16:03;;;;;;;8.38;5.70;;;;;;;11.98;100.00;100350.13;5034297;28;20232;-72
2023/01/02 02:18:45;;;;;;;10.93;5.35;;;;;;;11.89;100.00;100351.50;5033748;28;20190;-72
2023/01/02 02:21:25;;;;;;;10.23;5.55;;;;;;;11.71;100.00;100347.00;5034779;28;20208;-71
2023/01/02 02:24:26;;;;;;;11.70;6.25;;;;;;;11.60;100.00;100346.66;5034486;28;20194;-72
2023/01/02 02:27:01;;;;;;;9.68;5.90;;;;;;;11.55;100.00;100340.63;4992406;28;20219;-70
2023/01/02 02:29:56;;;;;;;8.95;6.72;;;;;;;11.42;100.00;100322.38;5030376;28;20280;-72
2023/01/02 02:32:29;;;;;;;8.13;6.03;;;;;;;11.38;100.00;100325.31;5030799;28;20217;-72
2023/01/02 02:35:03;;;;;;;9.82;6.00;;;;;;;11.39;100.00;100322.53;5011737;28;20274;-71
2023/01/02 02:37:39;;;;;;;9.70;5.75;;;;;;;11.33;100.00;100320.16;4994268;28;20227;-71
2023/01/02 02:40:17;;;;;;;11.82;5.82;;;;;;;11.27;100.00;100313.22;5006687;28;20197;-70
2023/01/02 02:42:55;;;;;;;7.55;5.65;;;;;;;11.53;100.00;100319.13;5037060;28;20194;-74
2023/01/02 02:45:31;;;;;;;8.55;5.88;;;;;;;11.58;100.00;100316.22;5028422;28;20301;-72
2023/01/02 02:48:05;;;;;;;10.40;6.55;;;;;;;11.70;100.00;100312.88;5035162;28;20723;-71
2023/01/02 02:50:36;;;;;;;8.93;5.82;;;;;;;11.60;100.00;100309.81;5034913;28;20201;-71
2023/01/02 02:53:09;;;;;;;8.63;5.93;;;;;;;11.69;100.00;100312.03;4998292;28;20210;-72
2023/01/02 02:55:39;;;;;;;11.93;6.00;;;;;;;11.55;100.00;100313.66;5012879;28;20222;-71
2023/01/02 02:58:07;;;;;;;7.75;5.57;;;;;;;11.62;100.00;100307.91;5027121;28;20403;-71
2023/01/02 03:00:35;;;;;;;8.45;5.53;;;;;;;11.72;100.00;100300.19;5036235;28;20201;-71
2023/01/02 03:03:02;;;;;;;8.20;5.60;;;;;;;11.64;100.00;100297.00;5034941;28;20198;-71
2023/01/02 03:05:35;;;;;;;9.00;6.00;;;;;;;11.55;100.00;100303.75;5033199;28;20242;-71
2023/01/02 03:08:10;;;;;;;9.30;5.90;;;;;;;11.43;100.00;100297.16;5007105;28;20186;-72
2023/01/02 03:10:46;;;;;;;11.35;5.55;;;;;;;11.39;100.00;100295.56;5033668;28;20206;-71
2023/01/02 03:13:18;;;;;;;8.63;5.60;;;;;;;11.49;100.00;100306.78;5033162;28;20717;-71
2023/01/02 03:15:56;;;;;;;9.32;5.38;;;;;;;11.54;100.00;100314.63;5036465;28;20287;-73
2023/01/02 03:18:31;;;;;;;9.80;5.93;;;;;;;11.47;100.00;100296.06;5036564;28;20202;-71
2023/01/02 03:21:02;;;;;;;13.40;6.25;;;;;;;11.46;100.00;100290.72;5037346;28;20189;-70
2023/01/02 03:23:33;;;;;;;10.25;6.20;;;;;;;11.41;100.00;100295.50;5035522;28;20190;-71
2023/01/02 03:26:01;;;;;;;10.20;5.90;;;;;;;11.57;100.00;100298.28;5037189;28;20217;-72
2023/01/02 03:28:29;;;;;;;7.63;5.32;;;;;;;11.50;100.00;100305.81;5039772;28;20202;-71
2023/01/02 03:31:01;;;;;;;8.65;6.00;;;;;;;11.53;100.00;100299.38;5047551;28;20304;-72
2023/01/02 03:33:31;;;;;;;9.02;5.22;;;;;;;11.54;100.00;100293.91;5039316;28;20284;-72
2023/01/02 03:36:02;;;;;;;5.95;4.82;;;;;;;11.57;100.00;100284.78;5040003;28;20798;-72
2023/01/02 03:38:35;;;;;;;9.18;5.50;;;;;;;11.57;100.00;100277.56;5035844;28;20240;-71
2023/01/02 03:41:07;;;;;;;10.60;5.57;;;;;;;11.62;100.00;100269.25;5043922;28;20184;-72
2023/01/02 03:43:36;;;;;;;8.48;5.18;;;;;;;11.60;100.00;100276.53;5042477;28;20640;-72
2023/01/02 03:46:12;;;;;;;11.30;5.60;;;;;;;11.53;100.00;100281.38;5041715;28;20213;-72
2023/01/02 03:48:43;;;;;;;7.60;5.10;;;;;;;11.55;100.00;100290.25;5038888;28;20189;-71
2023/01/02 03:51:10;;;;;;;8.77;5.97;;;;;;;11.52;100.00;100298.53;5039490;28;20228;-72
2023/01/02 03:53:39;;;;;;;12.27;5.90;;;;;;;11.50;100.00;100307.63;5041550;28;20194;-71
2023/01/02 03:56:25;;;;;;;7.75;5.35;;;;;;;11.47;100.00;100328.41;5043780;28;20226;-73
2023/01/02 03:58:55;;;;;;;8.23;5.25;;;;;;;11.34;100.00;100324.59;5043335;28;20281;-72
2023/01/02 04:01:32;;;;;;;11.20;6.13;;;;;;;11.38;100.00;100326.19;5032263;28;20766;-71
2023/01/02 04:04:05;;;;;;;9.88;5.68;;;;;;;11.48;100.00;100327.44;5042270;28;20690;-71
2023/01/02 04:06:36;;;;;;;12.25;5.95;;;;;;;11.62;100.00;100323.19;5044606;28;20599;-72
2023/01/02 04:09:07;;;;;;;10.93;5.80;;;;;;;11.63;100.00;100325.81;5040198;28;20585;-72
2023/01/02 04:11:37;;;;;;;9.95;5.22;;;;;;;11.57;100.00;100319.84;5020876;28;20214;-71
2023/01/02 04:14:12;;;;;;;6.38;5.18;;;;;;;11.65;100.00;100307.72;5017582;28;20202;-71
2023/01/02 04:16:41;;;;;;;9.45;5.28;;;;;;;11.66;100.00;100309.47;5016420;28;20224;-70
2023/01/02 04:19:11;;;;;;;6.60;4.90;;;;;;;11.79;100.00;100309.72;5016071;28;20935;-71
2023/01/02 04:21:40;;;;;;;11.57;4.82;;;;;;;11.94;100.00;100307.19;5017242;28;20225;-71
2023/01/02 04:24:12;;;;;;;7.72;4.90;;;;;;;12.07;100.00;100294.78;5017444;28;20195;-71
2023/01/02 04:26:44;;;;;;;7.57;4.10;;;;;;;12.18;100.00;100299.63;5017613;28;20214;-70
2023/01/02 04:29:11;;;;;;;11.00;5.20;;;;;;;12.21;100.00;100299.44;5015854;28;20593;-70
2023/01/02 04:31:45;;;;;;;9.95;4.93;;;;;;;12.26;100.00;100282.06;5016625;28;20227;-73
2023/01/02 04:34:14;;;;;;;10.13;5.40;;;;;;;12.40;100.00;100296.66;5016455;28;20253;-71
2023/01/02 04:36:41;;;;;;;8.60;4.80;;;;;;;12.53;100.00;100305.81;5016657;28;20249;-71
2023/01/02 04:39:08;;;;;;;7.30;4.82;;;;;;;12.52;100.00;100298.66;5015796;28;20206;-71
2023/01/02 04:41:37;;;;;;;6.93;4.32;;;;;;;12.50;100.00;100312.28;5015817;28;20211;-70
2023/01/02 04:44:03;;;;;;;9.80;5.82;;;;;;;12.46;100.00;100326.91;5016274;28;20207;-72
2023/01/02 04:46:30;;;;;;;8.90;5.07;;;;;;;12.45;100.00;100338.63;5016711;28;20601;-72
2023/01/02 04:49:00;;;;;;;10.68;5.07;;;;;;;12.42;100.00;100346.06;5015397;28;20684;-70
2023/01/02 04:51:27;;;;;;;6.45;5.40;;;;;;;12.44;100.00;100346.84;5019468;28;20298;-71
2023/01/02 04:53:54;;;;;;;8.50;5.18;;;;;;;12.36;100.00;100338.28;5027852;28;20217;-71
2023/01/02 04:56:21;;;;;;;10.90;6.82;;;;;;;12.35;100.00;100334.72;5018684;28;20215;-72
2023/01/02 04:58:48;;;;;;;11.32;6.13;;;;;;;12.25;100.00;100339.72;5021517;28;20290;-72
2023/01/02 05:01:16;;;;;;;10.85;5.93;;;;;;;12.24;100.00;100350.63;5024237;28;20205;-71
2023/01/02 05:03:46;;;;;;;12.00;6.15;;;;;;;12.29;100.00;100346.69;5019965;28;20439;-71
2023/01/02 05:06:14;;;;;;;12.32;6.40;;;;;;;12.21;100.00;100340.84;5017387;28;20229;-70
2023/01/02 05:08:41;;;;;;;8.57;6.20;;;;;;;12.19;100.00;100342.75;5016538;28;20234;-71
2023/01/02 05:11:09;;;;;;;6.93;5.07;;;;;;;12.18;100.00;100330.19;5015199;28;20245;-74
2023/01/02 05:13:35;;;;;;;7.68;5.07;;;;;;;12.14;100.00;100336.69;5015022;28;20219;-71
2023/01/02 05:16:02;;;;;;;8.55;4.50;;;;;;;12.04;100.00;100330.94;5006089;28;20214;-71
2023/01/02 05:18:29;;;;;;;14.13;5.85;;;;;;;12.04;100.00;100330.94;5015139;28;20206;-72
2023/01/02 05:21:00;;;;;;;9.35;5.78;;;;;;;11.96;100.00;100329.56;5002275;28;20206;-71
2023/01/02 05:26:13;;;;;;;8.82;5.10;;;;;;;11.97;100.00;100329.50;4996502;28;20222;-72
2023/01/02 05:28:40;;;;;;;6.50;4.57;;;;;;;11.99;100.00;100348.34;4996287;28;20238;-74
2023/01/02 05:31:07;;;;;;;8.18;5.07;;;;;;;11.99;100.00;100348.34;5002904;28;20203;-72
2023/01/02 05:33:33;;;;;;;9.65;5.53;;;;;;;11.97;100.00;100361.03;5016877;28;20294;-72
2023/01/02 05:36:00;;;;;;;12.02;5.38;;;;;;;11.89;100.00;100350.63;5016402;28;20223;-72
2023/01/02 05:38:30;;;;;;;7.82;5.20;;;;;;;11.96;100.00;100356.56;5015735;28;20207;-72
2023/01/02 05:41:01;;;;;;;8.60;4.97;;;;;;;11.87;100.00;100365.97;5016339;28;20665;-73
2023/01/02 05:43:30;;;;;;;11.63;4.75;;;;;;;11.80;100.00;100359.16;5013642;28;20231;-73
2023/01/02 05:45:56;;;;;;;8.70;5.22;;;;;;;11.88;100.00;100363.25;5002792;28;20725;-74
2023/01/02 05:48:23;;;;;;;9.65;6.10;;;;;;;11.82;100.00;100374.31;5033942;28;20297;-72
2023/01/02 05:50:49;;;;;;;7.95;5.00;;;;;;;11.84;100.00;100371.53;5011211;28;20237;-73
2023/01/02 05:53:17;;;;;;;8.73;5.13;;;;;;;11.86;100.00;100375.03;5015519;28;20233;-73
2023/01/02 05:55:45;;;;;;;7.72;5.30;;;;;;;11.84;100.00;100375.09;5019024;28;20214;-73
2023/01/02 05:58:11;;;;;;;10.02;4.90;;;;;;;11.90;100.00;100379.34;5025876;28;20285;-75
2023/01/02 06:00:38;;;;;;;10.07;5.38;;;;;;;11.89;100.00;100380.28;5036244;28;20677;-76
2023/01/02 06:03:04;;;;;;;8.23;5.20;;;;;;;11.87;100.00;100376.75;5022965;28;20195;-73
2023/01/02 06:05:31;;;;;;;9.20;4.95;;;;;;;11.92;100.00;100373.88;5014212;28;20227;-74
2023/01/02 06:07:57;;;;;;;7.80;5.60;;;;;;;11.92;100.00;100374.75;5004844;28;20184;-74
2023/01/02 06:10:24;;;;;;;11.02;5.25;;;;;;;11.81;100.00;100371.69;4995752;28;20290;-73
2023/01/02 06:12:52;;;;;;;11.95;5.00;;;;;;;11.80;100.00;100375.34;4995932;28;20265;-74
2023/01/02 06:15:18;;;;;;;27.83;6.07;;;;;;;11.74;100.00;100364.88;4996820;28;20214;-73
2023/01/02 06:17:45;;;;;;;7.25;4.50;;;;;;;11.81;100.00;100369.88;5000951;28;20223;-72
2023/01/02 06:20:11;;;;;;;7.75;4.85;;;;;;;11.76;100.00;100363.84;5007331;28;20234;-72
2023/01/02 06:22:38;;;;;;;9.65;4.35;;;;;;;11.82;100.00;100368.91;5007988;28;20266;-72
2023/01/02 06:25:05;;;;;;;11.45;4.82;;;;;;;11.88;100.00;100375.88;5009376;28;20204;-72
2023/01/02 06:27:32;;;;;;;9.80;5.13;;;;;;;11.88;100.00;100387.53;5008224;28;20263;-72
2023/01/02 06:30:00;;;;;;;11.02;5.40;;;;;;;11.92;100.00;100388.25;5008636;28;20203;-73
2023/01/02 06:32:26;;;;;;;10.25;4.88;;;;;;;11.85;100.00;100371.47;5005773;28;20270;-73
2023/01/02 06:34:53;;;;;;;8.48;4.70;;;;;;;11.88;100.00;100384.81;5003984;28;20259;-72
2023/01/02 06:37:20;;;;;;;11.05;5.22;;;;;;;11.87;100.00;100393.88;5005930;28;20231;-72
2023/01/02 06:39:46;;;;;;;12.05;4.65;;;;;;;11.81;100.00;100388.75;5002530;28;20752;-73
2023/01/02 06:42:13;;;;;;;7.80;4.72;;;;;;;11.93;100.00;100389.13;4997501;28;20205;-73
2023/01/02 06:44:39;;;;;;;9.75;5.28;;;;;;;11.87;100.00;100390.25;4996974;28;20309;-73
2023/01/02 06:47:07;;;;;;;8.52;5.28;;;;;;;12.01;100.00;100392.31;4997990;28;20227;-73
2023/01/02 06:49:34;;;;;;;10.60;5.30;;;;;;;11.95;100.00;100392.63;5002843;28;20680;-71
2023/01/02 06:52:00;;;;;;;8.18;4.95;;;;;;;11.99;100.00;100394.22;5008216;28;20225;-74
2023/01/02 06:54:27;;;;;;;6.55;4.57;;;;;;;12.06;100.00;100401.03;5007728;28;20210;-73
2023/01/02 06:56:53;;;;;;;8.23;4.53;;;;;;;12.02;100.00;100385.94;5005735;28;20682;-72
2023/01/02 06:59:20;;;;;;;8.15;5.32;;;;;;;11.99;100.00;100388.81;5001688;28;20685;-74
2023/01/02 07:01:47;;;;;;;9.20;4.50;;;;;;;12.10;100.00;100398.09;5001822;28;20219;-73
2023/01/02 07:04:16;;;;;;;7.05;3.97;;;;;;;12.05;100.00;100388.47;5002352;28;20191;-73
2023/01/02 07:06:43;;;;;;;10.93;4.63;;;;;;;12.07;100.00;100394.66;5020758;23;20233;-74
2023/01/02 07:09:09;;;;;;;6.90;4.15;;;;;;;12.15;100.00;100391.59;5016100;28;20210;-73
2023/01/02 07:11:36;;;;;;;6.97;4.15;;;;;;;12.04;100.00;100384.03;5016782;28;20708;-74
2023/01/02 07:14:02;;;;;;;13.43;4.60;;;;;;;12.00;100.00;100377.06;5016803;28;20222;-74
2023/01/02 07:16:29;;;;;;;6.40;4.50;;;;;;;11.99;100.00;100372.63;5017324;28;20241;-74
2023/01/02 07:18:56;;;;;;;9.25;4.22;;;;;;;12.01;100.00;100370.72;5016173;28;20222;-74
2023/01/02 07:21:23;;;;;;;7.88;4.38;;;;;;;12.08;100.00;100381.09;5017249;28;20224;-74
2023/01/02 07:23:50;;;;;;;7.90;4.20;;;;;;;12.12;100.00;100386.34;5017373;28;20205;-73
2023/01/02 07:26:17;;;;;;;9.55;4.80;;;;;;;12.08;100.00;100391.03;5017923;28;20237;-74
2023/01/02 07:28:45;;;;;;;9.07;3.97;;;;;;;12.11;100.00;100390.88;5016217;28;20206;-74
2023/01/02 07:31:14;;;;;;;6.18;3.70;;;;;;;12.14;100.00;100388.00;5017081;28;20226;-73
2023/01/02 07:33:41;;;;;;;5.60;4.18;;;;;;;12.12;100.00;100386.34;5017625;28;20592;-74
2023/01/02 07:36:10;;;;;;;6.22;4.30;;;;;;;12.19;100.00;100385.97;5016936;28;20310;-74
2023/01/02 07:38:38;;;;;;;9.27;4.25;;;;;;;12.22;100.00;100385.78;5017404;28;20202;-74
2023/01/02 07:41:05;;;;;;;7.53;3.80;;;;;;;12.28;100.00;100380.06;5028254;28;20212;-74
2023/01/02 07:43:32;;;;;;;7.38;3.65;;;;;;;12.32;100.00;100375.34;5017259;28;20669;-74
2023/01/02 07:46:02;;;;;;;8.10;3.80;;;;;;;12.37;100.00;100375.13;5017333;28;20230;-74
2023/01/02 07:48:29;;;;;;;9.98;3.78;;;;;;;12.45;100.00;100373.75;5015992;28;20186;-74
2023/01/02 07:50:59;;;;;;;5.45;3.25;;;;;;;12.51;100.00;100377.97;5016385;28;20210;-75
2023/01/02 07:53:26;;;;;;;7.95;3.50;;;;;;;12.60;100.00;100382.00;5016337;28;20306;-74
2023/01/02 07:55:54;;;;;;;7.82;3.47;;;;;;;12.72;100.00;100384.03;5017465;28;20202;-74
2023/01/02 07:58:21;;;;;;;9.13;3.72;;;;;;;12.71;100.00;100385.00;5015815;28;20203;-75
2023/01/02 08:00:47;;;;;;;8.15;3.22;;;;;;;12.81;100.00;100382.66;5014911;28;20203;-74
2023/01/02 08:03:14;;;;;;;11.13;3.45;;;;;;;12.92;100.00;100397.31;5015893;28;20198;-74
2023/01/02 08:05:40;;;;;;;6.05;3.58;;;;;;;13.00;100.00;100407.72;5022459;28;20217;-75
2023/01/02 08:08:07;;;;;;;7.75;3.70;;;;;;;13.03;100.00;100402.13;5035393;28;20237;-73
2023/01/02 08:10:34;;;;;;;8.77;3.67;;;;;;;13.12;100.00;100401.63;5023224;28;20679;-75
2023/01/02 08:13:02;;;;;;;9.63;3.72;;;;;;;13.21;100.00;100405.66;5017243;28;20226;-74
2023/01/02 08:15:28;;;;;;;8.18;3.40;;;;;;;13.27;100.00;100402.59;5015626;28;20203;-74
2023/01/02 08:17:56;;;;;;;12.00;3.33;;;;;;;13.34;100.00;100411.25;5018368;28;20254;-75
2023/01/02 08:20:23;;;;;;;7.47;2.72;;;;;;;13.42;100.00;100400.88;5023092;28;20669;-74
2023/01/02 08:22:49;;;;;;;7.85;3.25;;;;;;;13.40;100.00;100400.09;5020926;28;20199;-75
2023/01/02 08:25:16;;;;;;;7.90;3.33;;;;;;;13.50;100.00;100416.66;5018318;28;20274;-74
2023/01/02 08:27:43;;;;;;;8.93;3.60;;;;;;;13.59;100.00;100417.97;5014393;28;20219;-75
2023/01/02 08:30:12;;;;;;;6.90;2.67;;;;;;;13.60;100.00;100420.59;5015154;28;20209;-76
2023/01/02 08:32:39;;;;;;;5.28;3.15;;;;;;;13.66;100.00;100417.53;5014867;28;20233;-74
2023/01/02 08:35:07;;;;;;;10.18;3.35;;;;;;;13.75;100.00;100427.84;5013480;28;20206;-74
2023/01/02 08:37:34;;;;;;;5.60;3.10;;;;;;;13.76;100.00;100444.94;5014405;28;20224;-74
2023/01/02 08:40:00;;;;;;;7.72;3.22;;;;;;;13.83;100.00;100451.75;5014700;28;20199;-74
2023/01/02 08:42:27;;;;;;;9.15;3.13;;;;;;;13.83;100.00;100449.03;5014393;28;20560;-73
2023/01/02 08:44:53;;;;;;;6.43;3.30;;;;;;;13.83;100.00;100449.03;5016846;28;20210;-75
2023/01/02 08:47:21;;;;;;;7.90;3.65;;;;;;;13.83;100.00;100434.63;5018255;28;20229;-73
2023/01/02 08:49:48;;;;;;;11.48;3.28;;;;;;;13.84;100.00;100445.38;5017606;28;20596;-74
2023/01/02 08:52:14;;;;;;;9.63;3.85;;;;;;;13.82;100.00;100450.00;5016319;28;20214;-75
2023/01/02 08:54:41;;;;;;;8.57;3.70;;;;;;;13.90;100.00;100458.53;5014844;28;20205;-74
2023/01/02 08:57:07;;;;;;;9.45;3.25;;;;;;;13.91;100.00;100463.00;5014111;28;20227;-74
2023/01/02 08:59:34;;;;;;;5.13;2.60;;;;;;;13.92;100.00;100464.72;5013838;28;20199;-75
2023/01/02 09:02:00;;;;;;;6.95;3.10;;;;;;;13.95;100.00;100471.81;5014769;28;20199;-75
2023/01/02 09:04:28;;;;;;;8.07;3.10;;;;;;;14.00;100.00;100475.13;5015628;28;20202;-75
2023/01/02 09:06:55;;;;;;;6.72;3.10;;;;;;;14.02;100.00;100467.81;5015290;28;20321;-73
2023/01/02 09:09:21;;;;;;;9.10;3.35;;;;;;;14.01;100.00;100474.16;5019572;28;20294;-73
2023/01/02 09:11:51;;;;;;;6.40;3.10;;;;;;;14.06;100.00;100476.59;5021195;28;20209;-74
2023/01/02 09:14:18;;;;;;;7.95;3.25;;;;;;;14.08;100.00;100480.09;5017288;28;20695;-75
2023/01/02 09:16:45;;;;;;;10.05;3.40;;;;;;;14.12;100.00;100481.66;5018228;28;20712;-74
2023/01/02 09:19:12;;;;;;;6.25;2.58;;;;;;;14.12;100.00;100492.50;5017334;28;20285;-74
2023/01/02 09:21:39;;;;;;;7.93;2.78;;;;;;;14.18;100.00;100489.44;5017617;28;20198;-73
2023/01/02 09:24:07;;;;;;;14.10;3.08;;;;;;;14.14;100.00;100486.03;5015730;28;20297;-75
2023/01/02 09:26:34;;;;;;;12.65;3.38;;;;;;;14.17;100.00;100490.38;5015824;28;20223;-76
2023/01/02 09:29:01;;;;;;;8.70;2.88;;;;;;;14.22;100.00;100504.50;5014612;28;20738;-75
2023/01/02 09:31:27;;;;;;;9.15;3.17;;;;;;;14.26;100.00;100500.66;5014923;28;20368;-74
2023/01/02 09:33:54;;;;;;;6.80;2.90;;;;;;;14.33;100.00;100504.75;5018877;28;20222;-74
2023/01/02 09:36:21;;;;;;;9.70;3.00;;;;;;;14.30;100.00;100504.94;5014601;28;20222;-75
2023/01/02 09:38:53;;;;;;;9.90;3.30;;;;;;;14.33;100.00;100514.72;5013812;28;20293;-75
2023/01/02 09:41:27;;;;;;;9.50;3.10;;;;;;;14.35;100.00;100519.09;5014601;28;20209;-74
2023/01/02 09:43:57;;;;;;;10.00;3.92;;;;;;;14.38;100.00;100504.47;5014927;28;20288;-74
2023/01/02 09:46:31;;;;;;;9.52;3.60;;;;;;;14.35;100.00;100494.69;5013937;28;20238;-74
2023/01/02 09:48:58;;;;;;;8.02;2.80;;;;;;;14.27;100.00;100507.84;5013442;28;20210;-74
2023/01/02 09:51:26;;;;;;;6.05;3.10;;;;;;;14.27;100.00;100507.84;5013609;28;20214;-74
2023/01/02 09:53:54;;;;;;;8.98;3.75;;;;;;;14.27;100.00;100507.84;5014664;28;20248;-74
2023/01/02 09:56:24;;;;;;;10.85;3.40;;;;;;;14.29;100.00;100516.75;5014723;28;20222;-74
2023/01/02 09:58:58;;;;;;;8.45;3.15;;;;;;;14.28;100.00;100527.69;5013724;28;20191;-74
2023/01/02 10:01:32;;;;;;;6.93;3.97;;;;;;;14.28;100.00;100533.97;5014775;28;20726;-74
2023/01/02 10:04:14;;;;;;;13.02;3.22;;;;;;;14.36;100.00;100542.53;5015205;28;20183;-74
2023/01/02 10:06:47;;;;;;;9.15;2.72;;;;;;;14.35;100.00;100538.06;5017255;28;20229;-74
2023/01/02 10:09:23;;;;;;;8.38;3.60;;;;;;;14.42;100.00;100540.41;5016613;28;20199;-74
2023/01/02 10:11:59;;;;;;;8.88;3.35;;;;;;;14.38;100.00;100543.31;5017508;28;20197;-74
2023/01/02 10:14:35;;;;;;;12.10;2.95;;;;;;;14.45;100.00;100545.63;5018082;28;20316;-74
2023/01/02 10:17:05;;;;;;;7.75;2.45;;;;;;;14.36;100.00;100545.22;5014826;28;20320;-75
2023/01/02 10:19:42;;;;;;;11.27;4.55;;;;;;;14.32;100.00;100540.09;5014564;28;20194;-73
2023/01/02 10:22:13;;;;;;;10.52;3.10;;;;;;;14.25;100.00;100534.16;5015374;28;20277;-75
2023/01/02 10:24:47;;;;;;;10.25;2.80;;;;;;;14.11;100.00;100534.06;5014929;28;20245;-73
2023/01/02 10:27:17;;;;;;;6.55;2.33;;;;;;;14.08;100.00;100528.84;5017023;28;20233;-75
2023/01/02 10:29:50;;;;;;;11.98;3.40;;;;;;;14.15;100.00;100533.78;5017424;28;20281;-74
2023/01/02 10:32:21;;;;;;;7.32;3.10;;;;;;;14.14;100.00;100531.19;5015253;28;20622;-73
2023/01/02 10:34:58;;;;;;;10.50;3.15;;;;;;;14.10;100.00;100521.50;5014849;28;20206;-74
2023/01/02 10:37:26;;;;;;;8.75;3.30;;;;;;;14.14;100.00;100520.38;5014805;28;20319;-75
2023/01/02 10:39:54;;;;;;;8.48;3.15;;;;;;;14.15;100.00;100520.25;5015055;28;20571;-74
2023/01/02 10:42:21;;;;;;;7.72;3.20;;;;;;;14.18;100.00;100532.78;5014768;28;20318;-74
2023/01/02 10:44:48;;;;;;;9.20;3.55;;;;;;;14.15;100.00;100533.78;5014321;28;20664;-74
2023/01/02 10:47:21;;;;;;;10.82;3.15;;;;;;;14.24;100.00;100531.53;5018430;28;20233;-74
2023/01/02 10:49:49;;;;;;;11.55;2.90;;;;;;;14.28;100.00;100530.38;5017975;28;20215;-74
2023/01/02 10:52:22;;;;;;;7.97;2.50;;;;;;;14.36;100.00;100541.66;5017769;28;20199;-74
2023/01/02 10:54:51;;;;;;;9.07;3.15;;;;;;;14.31;100.00;100541.03;5016453;28;20229;-74
2023/01/02 10:57:25;;;;;;;13.23;3.22;;;;;;;14.28;100.00;100536.66;5014794;28;20232;-74
2023/01/02 10:59:57;;;;;;;10.13;2.90;;;;;;;14.26;100.00;100540.44;5014931;28;20191;-75
2023/01/02 11:02:27;;;;;;;5.72;2.95;;;;;;;14.23;100.00;100557.75;5014026;28;20194;-74
2023/01/02 11:04:53;;;;;;;8.45;3.40;;;;;;;14.08;100.00;100545.09;5013491;28;20222;-75
2023/01/02 11:07:24;;;;;;;8.25;3.33;;;;;;;13.95;100.00;100555.72;5014093;28;20234;-74
2023/01/02 11:09:55;;;;;;;8.38;3.28;;;;;;;13.93;100.00;100549.56;5014146;28;20209;-74
2023/01/02 11:12:23;;;;;;;8.18;3.20;;;;;;;13.90;100.00;100547.00;5014235;28;20226;-75
2023/01/02 11:14:50;;;;;;;10.93;3.60;;;;;;;13.83;100.00;100561.84;5014352;28;20233;-75
2023/01/02 11:17:18;;;;;;;12.90;3.72;;;;;;;13.81;100.00;100561.94;5014441;28;20595;-75
2023/01/02 11:19:47;;;;;;;6.90;3.50;;;;;;;13.77;100.00;100560.38;5013670;28;20206;-74
2023/01/02 11:22:16;;;;;;;6.10;2.70;;;;;;;13.81;100.00;100556.53;5014252;28;20205;-73
2023/01/02 11:24:54;;;;;;;12.95;3.60;;;;;;;13.77;100.00;100558.53;5013318;28;20203;-75